sensor_id;sensor_type;location;lat;lon;timestamp;P1;durP1;ratioP1;P2;durP2;ratioP2
78224;SDS011;67498;53.650;10.090;2023-08-06T00:02:15;4.90;;;0.80;;
78224;SDS011;67498;53.650;10.090;2023-08-06T00:04:40;3.27;;;0.80;;
78224;SDS011;67498;53.650;10.090;2023-08-06T00:07:06;3.37;;;0.80;;
78224;SDS011;67498;53.650;10.090;2023-08-06T00:09:31;3.57;;;0.70;;
78224;SDS011;67498;53.650;10.090;2023-08-06T00:11:56;4.00;;;1.00;;
78224;SDS011;67498;53.650;10.090;2023-08-06T00:14:21;5.63;;;1.00;;
78224;SDS011;67498;53.650;10.090;2023-08-06T00:16:47;3.70;;;0.90;;
78224;SDS011;67498;53.650;10.090;2023-08-06T00:19:12;5.90;;;1.23;;
78224;SDS011;67498;53.650;10.090;2023-08-06T00:21:37;4.40;;;1.00;;
78224;SDS011;67498;53.650;10.090;2023-08-06T00:24:03;3.63;;;1.00;;
78224;SDS011;67498;53.650;10.090;2023-08-06T00:26:28;3.88;;;1.00;;
78224;SDS011;67498;53.650;10.090;2023-08-06T00:28:53;4.87;;;1.00;;
78224;SDS011;67498;53.650;10.090;2023-08-06T00:31:18;4.27;;;1.00;;
78224;SDS011;67498;53.650;10.090;2023-08-06T00:33:44;3.43;;;0.83;;
78224;SDS011;67498;53.650;10.090;2023-08-06T00:36:09;3.57;;;0.93;;
78224;SDS011;67498;53.650;10.090;2023-08-06T00:38:34;3.97;;;1.20;;
78224;SDS011;67498;53.650;10.090;2023-08-06T00:40:59;4.10;;;1.23;;
78224;SDS011;67498;53.650;10.090;2023-08-06T00:43:25;3.93;;;1.23;;
78224;SDS011;67498;53.650;10.090;2023-08-06T00:45:50;4.53;;;1.20;;
78224;SDS011;67498;53.650;10.090;2023-08-06T00:48:15;5.20;;;1.20;;
78224;SDS011;67498;53.650;10.090;2023-08-06T00:50:41;4.45;;;1.30;;
78224;SDS011;67498;53.650;10.090;2023-08-06T00:53:06;3.67;;;1.10;;
78224;SDS011;67498;53.650;10.090;2023-08-06T00:55:32;4.00;;;1.27;;
78224;SDS011;67498;53.650;10.090;2023-08-06T00:57:58;4.32;;;1.23;;
78224;SDS011;67498;53.650;10.090;2023-08-06T01:00:24;3.83;;;1.27;;
78224;SDS011;67498;53.650;10.090;2023-08-06T01:02:51;5.25;;;1.20;;
78224;SDS011;67498;53.650;10.090;2023-08-06T01:05:16;4.67;;;1.10;;
78224;SDS011;67498;53.650;10.090;2023-08-06T01:08:05;5.60;;;1.30;;
78224;SDS011;67498;53.650;10.090;2023-08-06T01:13:42;5.93;;;1.52;;
78224;SDS011;67498;53.650;10.090;2023-08-06T01:16:09;5.55;;;1.42;;
78224;SDS011;67498;53.650;10.090;2023-08-06T01:18:36;4.45;;;1.88;;
78224;SDS011;67498;53.650;10.090;2023-08-06T01:21:03;4.87;;;1.77;;
78224;SDS011;67498;53.650;10.090;2023-08-06T01:23:29;4.85;;;1.38;;
78224;SDS011;67498;53.650;10.090;2023-08-06T01:30:57;5.90;;;1.90;;
78224;SDS011;67498;53.650;10.090;2023-08-06T01:33:25;5.13;;;1.65;;
78224;SDS011;67498;53.650;10.090;2023-08-06T01:35:52;4.90;;;1.35;;
78224;SDS011;67498;53.650;10.090;2023-08-06T01:38:19;4.75;;;1.45;;
78224;SDS011;67498;53.650;10.090;2023-08-06T01:40:45;5.10;;;1.58;;
78224;SDS011;67498;53.650;10.090;2023-08-06T01:43:10;5.30;;;1.50;;
78224;SDS011;67498;53.650;10.090;2023-08-06T01:45:35;4.13;;;1.20;;
78224;SDS011;67498;53.650;10.090;2023-08-06T01:48:00;3.93;;;1.27;;
78224;SDS011;67498;53.650;10.090;2023-08-06T01:50:26;4.73;;;1.30;;
78224;SDS011;67498;53.650;10.090;2023-08-06T01:52:51;4.83;;;1.43;;
78224;SDS011;67498;53.650;10.090;2023-08-06T01:55:16;4.40;;;1.27;;
78224;SDS011;67498;53.650;10.090;2023-08-06T01:57:43;5.20;;;1.25;;
78224;SDS011;67498;53.650;10.090;2023-08-06T02:00:08;5.60;;;1.60;;
78224;SDS011;67498;53.650;10.090;2023-08-06T02:02:34;4.33;;;1.57;;
78224;SDS011;67498;53.650;10.090;2023-08-06T02:04:59;4.87;;;1.67;;
78224;SDS011;67498;53.650;10.090;2023-08-06T02:07:24;5.47;;;1.40;;
78224;SDS011;67498;53.650;10.090;2023-08-06T02:09:49;7.10;;;1.60;;
78224;SDS011;67498;53.650;10.090;2023-08-06T02:12:15;4.57;;;1.33;;
78224;SDS011;67498;53.650;10.090;2023-08-06T02:14:40;5.57;;;1.50;;
78224;SDS011;67498;53.650;10.090;2023-08-06T02:17:05;6.73;;;1.80;;
78224;SDS011;67498;53.650;10.090;2023-08-06T02:19:30;4.73;;;1.40;;
78224;SDS011;67498;53.650;10.090;2023-08-06T02:21:56;6.80;;;1.40;;
78224;SDS011;67498;53.650;10.090;2023-08-06T02:24:21;4.97;;;1.33;;
78224;SDS011;67498;53.650;10.090;2023-08-06T02:26:46;5.33;;;1.60;;
78224;SDS011;67498;53.650;10.090;2023-08-06T02:29:14;4.90;;;1.98;;
78224;SDS011;67498;53.650;10.090;2023-08-06T02:31:39;5.00;;;1.70;;
78224;SDS011;67498;53.650;10.090;2023-08-06T02:34:04;4.87;;;1.77;;
78224;SDS011;67498;53.650;10.090;2023-08-06T02:36:30;4.60;;;1.60;;
78224;SDS011;67498;53.650;10.090;2023-08-06T02:38:55;4.70;;;1.40;;
78224;SDS011;67498;53.650;10.090;2023-08-06T02:41:20;4.07;;;1.50;;
78224;SDS011;67498;53.650;10.090;2023-08-06T02:43:45;7.37;;;1.67;;
78224;SDS011;67498;53.650;10.090;2023-08-06T02:46:11;5.50;;;1.50;;
78224;SDS011;67498;53.650;10.090;2023-08-06T02:48:36;5.83;;;1.60;;
78224;SDS011;67498;53.650;10.090;2023-08-06T02:51:01;4.20;;;1.20;;
78224;SDS011;67498;53.650;10.090;2023-08-06T02:53:27;5.20;;;1.50;;
78224;SDS011;67498;53.650;10.090;2023-08-06T02:55:52;6.93;;;1.50;;
78224;SDS011;67498;53.650;10.090;2023-08-06T02:58:17;5.03;;;1.60;;
78224;SDS011;67498;53.650;10.090;2023-08-06T03:00:47;5.43;;;1.50;;
78224;SDS011;67498;53.650;10.090;2023-08-06T03:03:24;4.15;;;1.30;;
78224;SDS011;67498;53.650;10.090;2023-08-06T03:05:52;6.00;;;1.80;;
78224;SDS011;67498;53.650;10.090;2023-08-06T03:08:18;4.60;;;1.60;;
78224;SDS011;67498;53.650;10.090;2023-08-06T03:10:47;5.87;;;1.40;;
78224;SDS011;67498;53.650;10.090;2023-08-06T03:13:12;4.75;;;1.17;;
78224;SDS011;67498;53.650;10.090;2023-08-06T03:15:37;6.40;;;1.70;;
78224;SDS011;67498;53.650;10.090;2023-08-06T03:18:03;4.60;;;1.50;;
78224;SDS011;67498;53.650;10.090;2023-08-06T03:20:28;7.20;;;1.60;;
78224;SDS011;67498;53.650;10.090;2023-08-06T03:22:53;4.97;;;1.40;;
78224;SDS011;67498;53.650;10.090;2023-08-06T03:25:18;7.10;;;1.70;;
78224;SDS011;67498;53.650;10.090;2023-08-06T03:27:44;7.30;;;1.63;;
78224;SDS011;67498;53.650;10.090;2023-08-06T03:30:09;6.07;;;1.50;;
78224;SDS011;67498;53.650;10.090;2023-08-06T03:32:35;8.75;;;1.58;;
78224;SDS011;67498;53.650;10.090;2023-08-06T03:35:00;9.37;;;1.80;;
78224;SDS011;67498;53.650;10.090;2023-08-06T03:37:25;5.07;;;1.47;;
78224;SDS011;67498;53.650;10.090;2023-08-06T03:39:50;6.20;;;1.50;;
78224;SDS011;67498;53.650;10.090;2023-08-06T03:42:16;4.20;;;1.30;;
78224;SDS011;67498;53.650;10.090;2023-08-06T03:44:41;4.47;;;1.50;;
78224;SDS011;67498;53.650;10.090;2023-08-06T03:47:06;4.60;;;1.73;;
78224;SDS011;67498;53.650;10.090;2023-08-06T03:49:31;3.90;;;1.27;;
78224;SDS011;67498;53.650;10.090;2023-08-06T03:51:57;4.63;;;1.40;;
78224;SDS011;67498;53.650;10.090;2023-08-06T03:54:22;5.13;;;1.63;;
78224;SDS011;67498;53.650;10.090;2023-08-06T03:56:47;4.70;;;1.40;;
78224;SDS011;67498;53.650;10.090;2023-08-06T03:59:12;6.97;;;1.43;;
78224;SDS011;67498;53.650;10.090;2023-08-06T04:01:38;7.17;;;1.57;;
78224;SDS011;67498;53.650;10.090;2023-08-06T04:04:03;7.47;;;1.90;;
78224;SDS011;67498;53.650;10.090;2023-08-06T04:06:28;5.57;;;1.50;;
78224;SDS011;67498;53.650;10.090;2023-08-06T04:08:53;5.97;;;1.80;;
78224;SDS011;67498;53.650;10.090;2023-08-06T04:11:19;4.43;;;1.30;;
78224;SDS011;67498;53.650;10.090;2023-08-06T04:13:44;5.10;;;1.47;;
78224;SDS011;67498;53.650;10.090;2023-08-06T04:16:09;6.40;;;1.27;;
78224;SDS011;67498;53.650;10.090;2023-08-06T04:18:35;4.80;;;1.43;;
78224;SDS011;67498;53.650;10.090;2023-08-06T04:21:01;6.97;;;1.40;;
78224;SDS011;67498;53.650;10.090;2023-08-06T04:23:27;5.07;;;1.50;;
78224;SDS011;67498;53.650;10.090;2023-08-06T04:25:55;4.72;;;1.60;;
78224;SDS011;67498;53.650;10.090;2023-08-06T04:28:22;5.00;;;1.20;;
78224;SDS011;67498;53.650;10.090;2023-08-06T04:30:47;3.83;;;1.20;;
78224;SDS011;67498;53.650;10.090;2023-08-06T04:33:12;6.55;;;1.50;;
78224;SDS011;67498;53.650;10.090;2023-08-06T04:35:38;4.93;;;1.80;;
78224;SDS011;67498;53.650;10.090;2023-08-06T04:38:03;4.57;;;1.60;;
78224;SDS011;67498;53.650;10.090;2023-08-06T04:40:28;5.20;;;1.63;;
78224;SDS011;67498;53.650;10.090;2023-08-06T04:42:53;5.33;;;2.07;;
78224;SDS011;67498;53.650;10.090;2023-08-06T04:45:19;5.27;;;1.30;;
78224;SDS011;67498;53.650;10.090;2023-08-06T04:47:44;5.67;;;1.57;;
78224;SDS011;67498;53.650;10.090;2023-08-06T04:50:09;5.70;;;1.70;;
78224;SDS011;67498;53.650;10.090;2023-08-06T04:52:34;5.03;;;1.47;;
78224;SDS011;67498;53.650;10.090;2023-08-06T04:55:00;6.30;;;1.60;;
78224;SDS011;67498;53.650;10.090;2023-08-06T04:57:25;5.20;;;1.50;;
78224;SDS011;67498;53.650;10.090;2023-08-06T04:59:50;9.77;;;1.60;;
78224;SDS011;67498;53.650;10.090;2023-08-06T05:02:16;7.20;;;1.90;;
78224;SDS011;67498;53.650;10.090;2023-08-06T05:04:41;6.13;;;1.90;;
78224;SDS011;67498;53.650;10.090;2023-08-06T05:07:06;4.90;;;1.60;;
78224;SDS011;67498;53.650;10.090;2023-08-06T05:09:32;5.83;;;1.63;;
78224;SDS011;67498;53.650;10.090;2023-08-06T05:11:57;6.57;;;1.70;;
78224;SDS011;67498;53.650;10.090;2023-08-06T05:14:22;7.67;;;1.30;;
78224;SDS011;67498;53.650;10.090;2023-08-06T05:16:48;5.30;;;2.13;;
78224;SDS011;67498;53.650;10.090;2023-08-06T05:19:13;7.03;;;1.30;;
78224;SDS011;67498;53.650;10.090;2023-08-06T05:21:38;7.63;;;1.60;;
78224;SDS011;67498;53.650;10.090;2023-08-06T05:24:03;6.73;;;1.90;;
78224;SDS011;67498;53.650;10.090;2023-08-06T05:26:29;5.07;;;1.60;;
78224;SDS011;67498;53.650;10.090;2023-08-06T05:28:54;4.83;;;1.50;;
78224;SDS011;67498;53.650;10.090;2023-08-06T05:31:19;3.73;;;1.20;;
78224;SDS011;67498;53.650;10.090;2023-08-06T05:33:44;5.27;;;1.70;;
78224;SDS011;67498;53.650;10.090;2023-08-06T05:36:10;5.30;;;1.70;;
78224;SDS011;67498;53.650;10.090;2023-08-06T05:38:35;5.17;;;1.43;;
78224;SDS011;67498;53.650;10.090;2023-08-06T05:41:00;8.30;;;1.73;;
78224;SDS011;67498;53.650;10.090;2023-08-06T05:43:25;6.10;;;1.60;;
78224;SDS011;67498;53.650;10.090;2023-08-06T05:45:51;6.43;;;1.60;;
78224;SDS011;67498;53.650;10.090;2023-08-06T05:48:16;5.17;;;1.80;;
78224;SDS011;67498;53.650;10.090;2023-08-06T05:50:41;4.90;;;1.87;;
78224;SDS011;67498;53.650;10.090;2023-08-06T05:53:07;7.00;;;1.63;;
78224;SDS011;67498;53.650;10.090;2023-08-06T05:55:32;6.93;;;1.93;;
78224;SDS011;67498;53.650;10.090;2023-08-06T05:57:58;5.95;;;2.00;;
78224;SDS011;67498;53.650;10.090;2023-08-06T06:00:23;6.23;;;1.70;;
78224;SDS011;67498;53.650;10.090;2023-08-06T06:02:49;6.23;;;1.87;;
78224;SDS011;67498;53.650;10.090;2023-08-06T06:05:14;9.87;;;2.10;;
78224;SDS011;67498;53.650;10.090;2023-08-06T06:07:40;5.47;;;1.60;;
78224;SDS011;67498;53.650;10.090;2023-08-06T06:10:05;5.15;;;1.65;;
78224;SDS011;67498;53.650;10.090;2023-08-06T06:12:31;5.43;;;1.77;;
78224;SDS011;67498;53.650;10.090;2023-08-06T06:14:56;5.97;;;1.77;;
78224;SDS011;67498;53.650;10.090;2023-08-06T06:17:21;8.40;;;1.98;;
78224;SDS011;67498;53.650;10.090;2023-08-06T06:19:47;7.30;;;1.83;;
78224;SDS011;67498;53.650;10.090;2023-08-06T06:22:13;6.40;;;1.67;;
78224;SDS011;67498;53.650;10.090;2023-08-06T06:24:39;6.65;;;2.08;;
78224;SDS011;67498;53.650;10.090;2023-08-06T06:27:04;6.07;;;2.00;;
78224;SDS011;67498;53.650;10.090;2023-08-06T06:29:30;5.50;;;1.87;;
78224;SDS011;67498;53.650;10.090;2023-08-06T06:31:55;6.43;;;2.00;;
78224;SDS011;67498;53.650;10.090;2023-08-06T06:34:20;5.77;;;1.80;;
78224;SDS011;67498;53.650;10.090;2023-08-06T06:36:45;5.37;;;2.27;;
78224;SDS011;67498;53.650;10.090;2023-08-06T06:39:11;9.90;;;2.27;;
78224;SDS011;67498;53.650;10.090;2023-08-06T06:41:36;7.73;;;2.27;;
78224;SDS011;67498;53.650;10.090;2023-08-06T06:44:01;6.33;;;2.17;;
78224;SDS011;67498;53.650;10.090;2023-08-06T06:46:26;6.53;;;1.90;;
78224;SDS011;67498;53.650;10.090;2023-08-06T06:48:52;7.13;;;1.77;;
78224;SDS011;67498;53.650;10.090;2023-08-06T06:51:17;10.00;;;2.03;;
78224;SDS011;67498;53.650;10.090;2023-08-06T06:53:42;6.47;;;2.10;;
78224;SDS011;67498;53.650;10.090;2023-08-06T06:56:07;7.03;;;2.73;;
78224;SDS011;67498;53.650;10.090;2023-08-06T06:58:33;5.57;;;2.03;;
78224;SDS011;67498;53.650;10.090;2023-08-06T07:00:58;10.87;;;2.40;;
78224;SDS011;67498;53.650;10.090;2023-08-06T07:03:23;5.80;;;1.77;;
78224;SDS011;67498;53.650;10.090;2023-08-06T07:05:49;6.70;;;1.87;;
78224;SDS011;67498;53.650;10.090;2023-08-06T07:08:15;7.47;;;2.50;;
78224;SDS011;67498;53.650;10.090;2023-08-06T07:10:40;5.40;;;1.80;;
78224;SDS011;67498;53.650;10.090;2023-08-06T07:13:06;8.52;;;2.00;;
78224;SDS011;67498;53.650;10.090;2023-08-06T07:15:32;10.37;;;2.07;;
78224;SDS011;67498;53.650;10.090;2023-08-06T07:17:57;7.03;;;2.27;;
78224;SDS011;67498;53.650;10.090;2023-08-06T07:20:22;9.97;;;2.83;;
78224;SDS011;67498;53.650;10.090;2023-08-06T07:22:47;8.53;;;3.13;;
78224;SDS011;67498;53.650;10.090;2023-08-06T07:25:13;10.00;;;2.23;;
78224;SDS011;67498;53.650;10.090;2023-08-06T07:27:38;6.30;;;1.90;;
78224;SDS011;67498;53.650;10.090;2023-08-06T07:30:04;9.60;;;2.63;;
78224;SDS011;67498;53.650;10.090;2023-08-06T07:32:30;10.25;;;2.05;;
78224;SDS011;67498;53.650;10.090;2023-08-06T07:34:55;7.57;;;2.40;;
78224;SDS011;67498;53.650;10.090;2023-08-06T07:37:22;11.77;;;2.30;;
78224;SDS011;67498;53.650;10.090;2023-08-06T07:39:47;6.03;;;1.87;;
78224;SDS011;67498;53.650;10.090;2023-08-06T07:42:13;8.03;;;2.37;;
78224;SDS011;67498;53.650;10.090;2023-08-06T07:44:38;8.33;;;2.37;;
78224;SDS011;67498;53.650;10.090;2023-08-06T07:47:04;9.80;;;2.30;;
78224;SDS011;67498;53.650;10.090;2023-08-06T07:49:29;6.53;;;2.50;;
78224;SDS011;67498;53.650;10.090;2023-08-06T07:51:54;6.97;;;2.27;;
78224;SDS011;67498;53.650;10.090;2023-08-06T07:54:20;8.33;;;2.77;;
78224;SDS011;67498;53.650;10.090;2023-08-06T07:56:45;7.70;;;1.97;;
78224;SDS011;67498;53.650;10.090;2023-08-06T07:59:10;7.80;;;2.83;;
78224;SDS011;67498;53.650;10.090;2023-08-06T08:01:35;8.67;;;2.23;;
78224;SDS011;67498;53.650;10.090;2023-08-06T08:04:01;6.80;;;2.30;;
78224;SDS011;67498;53.650;10.090;2023-08-06T08:06:26;8.37;;;2.43;;
78224;SDS011;67498;53.650;10.090;2023-08-06T08:08:51;7.93;;;2.63;;
78224;SDS011;67498;53.650;10.090;2023-08-06T08:11:17;6.85;;;2.45;;
78224;SDS011;67498;53.650;10.090;2023-08-06T08:13:43;6.47;;;2.38;;
78224;SDS011;67498;53.650;10.090;2023-08-06T08:16:08;9.90;;;2.57;;
78224;SDS011;67498;53.650;10.090;2023-08-06T08:18:34;7.00;;;2.50;;
78224;SDS011;67498;53.650;10.090;2023-08-06T08:20:59;6.70;;;2.40;;
78224;SDS011;67498;53.650;10.090;2023-08-06T08:23:24;10.70;;;2.70;;
78224;SDS011;67498;53.650;10.090;2023-08-06T08:25:49;7.53;;;2.80;;
78224;SDS011;67498;53.650;10.090;2023-08-06T08:28:15;6.03;;;2.37;;
78224;SDS011;67498;53.650;10.090;2023-08-06T08:30:40;10.07;;;2.60;;
78224;SDS011;67498;53.650;10.090;2023-08-06T08:33:06;8.27;;;2.50;;
78224;SDS011;67498;53.650;10.090;2023-08-06T08:35:32;14.80;;;3.00;;
78224;SDS011;67498;53.650;10.090;2023-08-06T08:37:58;7.90;;;2.63;;
78224;SDS011;67498;53.650;10.090;2023-08-06T08:40:23;8.17;;;2.90;;
78224;SDS011;67498;53.650;10.090;2023-08-06T08:42:56;6.32;;;2.55;;
78224;SDS011;67498;53.650;10.090;2023-08-06T08:45:22;10.43;;;3.42;;
78224;SDS011;67498;53.650;10.090;2023-08-06T08:47:51;9.30;;;3.42;;
78224;SDS011;67498;53.650;10.090;2023-08-06T08:50:16;11.77;;;3.10;;
78224;SDS011;67498;53.650;10.090;2023-08-06T08:52:43;8.77;;;2.67;;
78224;SDS011;67498;53.650;10.090;2023-08-06T08:55:10;8.70;;;2.67;;
78224;SDS011;67498;53.650;10.090;2023-08-06T08:57:36;12.27;;;3.15;;
78224;SDS011;67498;53.650;10.090;2023-08-06T09:00:02;9.77;;;3.43;;
78224;SDS011;67498;53.650;10.090;2023-08-06T09:02:28;8.68;;;2.83;;
78224;SDS011;67498;53.650;10.090;2023-08-06T09:04:55;8.40;;;3.17;;
78224;SDS011;67498;53.650;10.090;2023-08-06T09:07:24;7.93;;;3.30;;
78224;SDS011;67498;53.650;10.090;2023-08-06T09:09:51;9.93;;;2.70;;
78224;SDS011;67498;53.650;10.090;2023-08-06T09:12:17;9.50;;;3.22;;
78224;SDS011;67498;53.650;10.090;2023-08-06T09:14:42;9.70;;;2.73;;
78224;SDS011;67498;53.650;10.090;2023-08-06T09:17:08;8.70;;;2.90;;
78224;SDS011;67498;53.650;10.090;2023-08-06T09:19:35;6.27;;;2.87;;
78224;SDS011;67498;53.650;10.090;2023-08-06T09:22:01;7.82;;;2.97;;
78224;SDS011;67498;53.650;10.090;2023-08-06T09:24:27;9.20;;;3.57;;
78224;SDS011;67498;53.650;10.090;2023-08-06T09:26:52;8.80;;;2.85;;
78224;SDS011;67498;53.650;10.090;2023-08-06T09:29:19;9.35;;;2.92;;
78224;SDS011;67498;53.650;10.090;2023-08-06T09:31:45;8.00;;;3.20;;
78224;SDS011;67498;53.650;10.090;2023-08-06T09:34:12;7.85;;;3.40;;
78224;SDS011;67498;53.650;10.090;2023-08-06T09:36:42;13.53;;;3.07;;
78224;SDS011;67498;53.650;10.090;2023-08-06T09:39:14;8.95;;;3.25;;
78224;SDS011;67498;53.650;10.090;2023-08-06T09:41:58;8.10;;;3.00;;
78224;SDS011;67498;53.650;10.090;2023-08-06T09:44:26;10.93;;;3.28;;
78224;SDS011;67498;53.650;10.090;2023-08-06T09:46:56;30.42;;;12.85;;
78224;SDS011;67498;53.650;10.090;2023-08-06T09:51:53;8.93;;;3.30;;
78224;SDS011;67498;53.650;10.090;2023-08-06T09:54:22;8.57;;;2.80;;
78224;SDS011;67498;53.650;10.090;2023-08-06T09:56:48;7.80;;;3.25;;
78224;SDS011;67498;53.650;10.090;2023-08-06T09:59:13;11.93;;;3.70;;
78224;SDS011;67498;53.650;10.090;2023-08-06T10:01:40;8.48;;;3.50;;
78224;SDS011;67498;53.650;10.090;2023-08-06T10:04:06;8.40;;;3.90;;
78224;SDS011;67498;53.650;10.090;2023-08-06T10:06:36;8.55;;;3.38;;
78224;SDS011;67498;53.650;10.090;2023-08-06T10:09:02;7.75;;;3.88;;
78224;SDS011;67498;53.650;10.090;2023-08-06T10:11:30;9.67;;;3.80;;
78224;SDS011;67498;53.650;10.090;2023-08-06T10:14:08;8.63;;;3.60;;
78224;SDS011;67498;53.650;10.090;2023-08-06T10:16:37;11.37;;;3.97;;
78224;SDS011;67498;53.650;10.090;2023-08-06T10:19:04;8.65;;;3.22;;
78224;SDS011;67498;53.650;10.090;2023-08-06T10:21:31;8.57;;;3.70;;
78224;SDS011;67498;53.650;10.090;2023-08-06T10:23:57;8.13;;;3.20;;
78224;SDS011;67498;53.650;10.090;2023-08-06T10:26:26;12.18;;;3.38;;
78224;SDS011;67498;53.650;10.090;2023-08-06T10:28:52;9.13;;;3.40;;
78224;SDS011;67498;53.650;10.090;2023-08-06T10:31:18;7.40;;;3.37;;
78224;SDS011;67498;53.650;10.090;2023-08-06T10:33:44;8.47;;;3.07;;
78224;SDS011;67498;53.650;10.090;2023-08-06T10:36:11;8.27;;;2.88;;
78224;SDS011;67498;53.650;10.090;2023-08-06T10:38:49;6.50;;;2.90;;
78224;SDS011;67498;53.650;10.090;2023-08-06T10:41:15;7.50;;;3.05;;
78224;SDS011;67498;53.650;10.090;2023-08-06T10:43:43;10.43;;;3.13;;
78224;SDS011;67498;53.650;10.090;2023-08-06T10:46:21;7.83;;;3.23;;
78224;SDS011;67498;53.650;10.090;2023-08-06T10:48:49;9.10;;;2.83;;
78224;SDS011;67498;53.650;10.090;2023-08-06T10:51:14;7.60;;;2.90;;
78224;SDS011;67498;53.650;10.090;2023-08-06T10:53:43;5.93;;;2.72;;
78224;SDS011;67498;53.650;10.090;2023-08-06T10:56:19;7.17;;;2.93;;
78224;SDS011;67498;53.650;10.090;2023-08-06T10:58:50;6.32;;;2.63;;
78224;SDS011;67498;53.650;10.090;2023-08-06T11:01:16;8.00;;;3.00;;
78224;SDS011;67498;53.650;10.090;2023-08-06T11:03:43;10.68;;;2.88;;
78224;SDS011;67498;53.650;10.090;2023-08-06T11:06:10;6.70;;;2.83;;
78224;SDS011;67498;53.650;10.090;2023-08-06T11:08:40;9.07;;;3.23;;
78224;SDS011;67498;53.650;10.090;2023-08-06T11:11:12;7.97;;;3.20;;
78224;SDS011;67498;53.650;10.090;2023-08-06T11:13:39;9.05;;;3.13;;
78224;SDS011;67498;53.650;10.090;2023-08-06T11:16:08;15.80;;;4.00;;
78224;SDS011;67498;53.650;10.090;2023-08-06T11:18:34;7.05;;;2.80;;
78224;SDS011;67498;53.650;10.090;2023-08-06T11:21:00;10.83;;;2.87;;
78224;SDS011;67498;53.650;10.090;2023-08-06T11:23:26;8.43;;;2.88;;
78224;SDS011;67498;53.650;10.090;2023-08-06T11:25:53;8.30;;;2.80;;
78224;SDS011;67498;53.650;10.090;2023-08-06T11:28:19;7.27;;;2.70;;
78224;SDS011;67498;53.650;10.090;2023-08-06T11:30:46;9.95;;;3.00;;
78224;SDS011;67498;53.650;10.090;2023-08-06T11:33:12;8.60;;;2.73;;
78224;SDS011;67498;53.650;10.090;2023-08-06T11:35:37;8.73;;;3.00;;
78224;SDS011;67498;53.650;10.090;2023-08-06T11:38:03;9.93;;;3.03;;
78224;SDS011;67498;53.650;10.090;2023-08-06T11:40:28;17.90;;;2.80;;
78224;SDS011;67498;53.650;10.090;2023-08-06T11:42:53;8.67;;;3.37;;
78224;SDS011;67498;53.650;10.090;2023-08-06T11:45:22;8.87;;;3.10;;
78224;SDS011;67498;53.650;10.090;2023-08-06T11:47:49;7.57;;;2.65;;
78224;SDS011;67498;53.650;10.090;2023-08-06T11:50:22;6.68;;;3.00;;
78224;SDS011;67498;53.650;10.090;2023-08-06T11:52:48;10.23;;;3.25;;
78224;SDS011;67498;53.650;10.090;2023-08-06T11:55:19;9.20;;;3.20;;
78224;SDS011;67498;53.650;10.090;2023-08-06T11:57:48;5.93;;;2.40;;
78224;SDS011;67498;53.650;10.090;2023-08-06T12:00:14;17.60;;;7.87;;
78224;SDS011;67498;53.650;10.090;2023-08-06T12:02:40;12.05;;;3.88;;
78224;SDS011;67498;53.650;10.090;2023-08-06T12:07:40;6.43;;;2.70;;
78224;SDS011;67498;53.650;10.090;2023-08-06T12:10:06;9.80;;;2.80;;
78224;SDS011;67498;53.650;10.090;2023-08-06T12:12:32;7.80;;;3.13;;
78224;SDS011;67498;53.650;10.090;2023-08-06T12:14:57;9.00;;;2.60;;
78224;SDS011;67498;53.650;10.090;2023-08-06T12:17:23;7.63;;;2.87;;
78224;SDS011;67498;53.650;10.090;2023-08-06T12:19:49;7.82;;;2.50;;
78224;SDS011;67498;53.650;10.090;2023-08-06T12:22:15;10.68;;;3.25;;
78224;SDS011;67498;53.650;10.090;2023-08-06T12:24:44;7.67;;;2.73;;
78224;SDS011;67498;53.650;10.090;2023-08-06T12:27:10;7.82;;;3.10;;
78224;SDS011;67498;53.650;10.090;2023-08-06T12:29:37;7.60;;;2.97;;
78224;SDS011;67498;53.650;10.090;2023-08-06T12:32:06;12.07;;;3.78;;
78224;SDS011;67498;53.650;10.090;2023-08-06T12:34:31;11.47;;;3.50;;
78224;SDS011;67498;53.650;10.090;2023-08-06T12:36:57;6.30;;;2.90;;
78224;SDS011;67498;53.650;10.090;2023-08-06T12:39:22;6.97;;;3.00;;
78224;SDS011;67498;53.650;10.090;2023-08-06T12:41:47;8.17;;;2.83;;
78224;SDS011;67498;53.650;10.090;2023-08-06T12:44:13;10.40;;;3.13;;
78224;SDS011;67498;53.650;10.090;2023-08-06T12:46:39;12.40;;;3.10;;
78224;SDS011;67498;53.650;10.090;2023-08-06T12:49:04;11.87;;;3.20;;
78224;SDS011;67498;53.650;10.090;2023-08-06T12:51:30;8.73;;;3.15;;
78224;SDS011;67498;53.650;10.090;2023-08-06T12:53:56;11.10;;;3.50;;
78224;SDS011;67498;53.650;10.090;2023-08-06T12:56:21;9.10;;;2.90;;
78224;SDS011;67498;53.650;10.090;2023-08-06T12:58:46;12.20;;;3.43;;
78224;SDS011;67498;53.650;10.090;2023-08-06T13:01:12;8.37;;;2.90;;
78224;SDS011;67498;53.650;10.090;2023-08-06T13:03:37;9.37;;;3.40;;
78224;SDS011;67498;53.650;10.090;2023-08-06T13:06:02;8.80;;;2.70;;
78224;SDS011;67498;53.650;10.090;2023-08-06T13:08:28;9.27;;;3.27;;
78224;SDS011;67498;53.650;10.090;2023-08-06T13:10:53;7.40;;;3.20;;
78224;SDS011;67498;53.650;10.090;2023-08-06T13:13:18;10.83;;;3.40;;
78224;SDS011;67498;53.650;10.090;2023-08-06T13:15:43;6.63;;;2.50;;
78224;SDS011;67498;53.650;10.090;2023-08-06T13:18:09;7.00;;;2.53;;
78224;SDS011;67498;53.650;10.090;2023-08-06T13:20:37;7.33;;;2.30;;
78224;SDS011;67498;53.650;10.090;2023-08-06T13:23:03;8.67;;;2.70;;
78224;SDS011;67498;53.650;10.090;2023-08-06T13:25:29;10.50;;;2.20;;
78224;SDS011;67498;53.650;10.090;2023-08-06T13:27:54;5.03;;;2.15;;
78224;SDS011;67498;53.650;10.090;2023-08-06T13:30:19;7.83;;;2.70;;
78224;SDS011;67498;53.650;10.090;2023-08-06T13:32:45;7.67;;;1.87;;
78224;SDS011;67498;53.650;10.090;2023-08-06T13:35:11;6.30;;;2.10;;
78224;SDS011;67498;53.650;10.090;2023-08-06T13:37:36;6.93;;;2.17;;
78224;SDS011;67498;53.650;10.090;2023-08-06T13:40:01;5.00;;;1.87;;
78224;SDS011;67498;53.650;10.090;2023-08-06T13:42:27;6.10;;;2.10;;
78224;SDS011;67498;53.650;10.090;2023-08-06T13:44:53;4.88;;;1.90;;
78224;SDS011;67498;53.650;10.090;2023-08-06T13:47:24;5.88;;;1.73;;
78224;SDS011;67498;53.650;10.090;2023-08-06T13:49:49;10.03;;;2.67;;
78224;SDS011;67498;53.650;10.090;2023-08-06T13:52:14;5.97;;;2.00;;
78224;SDS011;67498;53.650;10.090;2023-08-06T13:54:40;6.43;;;2.03;;
78224;SDS011;67498;53.650;10.090;2023-08-06T13:57:05;7.27;;;1.77;;
78224;SDS011;67498;53.650;10.090;2023-08-06T13:59:30;6.77;;;2.00;;
78224;SDS011;67498;53.650;10.090;2023-08-06T14:01:56;6.23;;;1.60;;
78224;SDS011;67498;53.650;10.090;2023-08-06T14:04:24;4.78;;;1.60;;
78224;SDS011;67498;53.650;10.090;2023-08-06T14:06:50;4.95;;;1.70;;
78224;SDS011;67498;53.650;10.090;2023-08-06T14:09:15;7.70;;;1.60;;
78224;SDS011;67498;53.650;10.090;2023-08-06T14:11:43;8.80;;;1.73;;
78224;SDS011;67498;53.650;10.090;2023-08-06T14:14:08;5.80;;;1.50;;
78224;SDS011;67498;53.650;10.090;2023-08-06T14:16:34;7.90;;;1.73;;
78224;SDS011;67498;53.650;10.090;2023-08-06T14:18:59;5.17;;;1.37;;
78224;SDS011;67498;53.650;10.090;2023-08-06T14:21:24;3.93;;;1.13;;
78224;SDS011;67498;53.650;10.090;2023-08-06T14:23:50;4.40;;;1.50;;
78224;SDS011;67498;53.650;10.090;2023-08-06T14:26:15;4.20;;;1.50;;
78224;SDS011;67498;53.650;10.090;2023-08-06T14:28:40;4.97;;;1.27;;
78224;SDS011;67498;53.650;10.090;2023-08-06T14:31:05;4.93;;;1.60;;
78224;SDS011;67498;53.650;10.090;2023-08-06T14:33:31;5.20;;;1.73;;
78224;SDS011;67498;53.650;10.090;2023-08-06T14:35:57;6.27;;;1.37;;
78224;SDS011;67498;53.650;10.090;2023-08-06T14:38:22;5.38;;;1.70;;
78224;SDS011;67498;53.650;10.090;2023-08-06T14:40:47;8.70;;;1.23;;